createdAt,value
2023-03-26T00:00:54.323Z,100028.31
2023-03-26T00:03:58.077Z,100025.91
2023-03-26T00:07:00.913Z,100020.97
2023-03-26T00:10:06.572Z,100020.28
2023-03-26T00:13:10.350Z,100013.94
2023-03-26T00:16:14.774Z,100023.09
2023-03-26T00:19:17.385Z,100014.75
2023-03-26T00:22:23.675Z,100025.41
2023-03-26T00:25:26.393Z,100016.66
2023-03-26T00:28:29.823Z,100037.03
2023-03-26T00:31:33.279Z,100015.25
2023-03-26T00:34:36.609Z,100020.34
2023-03-26T00:37:42.488Z,100022.78
2023-03-26T00:40:48.189Z,100023.41
2023-03-26T00:43:53.496Z,100028.31
2023-03-26T00:46:56.390Z,100025.88
2023-03-26T00:49:59.970Z,100007.09
2023-03-26T00:53:03.789Z,100012.56
2023-03-26T00:56:08.693Z,100009.13
2023-03-26T00:59:12.691Z,100007.22
2023-03-26T01:02:18.725Z,100000.97
2023-03-26T01:05:55.800Z,100004.69
2023-03-26T01:09:07.030Z,100002.38
2023-03-26T01:12:18.294Z,99989.00
2023-03-26T01:15:22.142Z,99993.81
2023-03-26T01:18:28.487Z,99996.03
2023-03-26T01:21:34.539Z,100002.94
2023-03-26T01:24:38.382Z,100005.00
2023-03-26T01:27:50.123Z,99999.94
2023-03-26T01:31:18.395Z,99999.44
2023-03-26T01:34:30.702Z,100011.59
2023-03-26T01:37:46.901Z,99996.31
2023-03-26T01:41:07.120Z,100010.06
2023-03-26T01:44:19.451Z,100018.06
2023-03-26T01:47:22.772Z,100013.47
2023-03-26T01:50:26.387Z,100023.50
2023-03-26T01:53:29.505Z,100005.66
2023-03-26T01:56:41.775Z,100011.25
2023-03-26T02:00:07.245Z,100014.50
2023-03-26T02:03:27.931Z,100011.50
2023-03-26T02:06:44.562Z,100032.06
2023-03-26T02:09:55.440Z,100039.09
2023-03-26T02:12:59.250Z,100031.75
2023-03-26T02:16:05.777Z,100025.44
2023-03-26T02:19:15.523Z,100039.88
2023-03-26T02:22:18.366Z,100041.19
2023-03-26T02:25:22.205Z,100032.38
2023-03-26T02:28:26.588Z,100041.78
2023-03-26T02:31:30.347Z,100038.94
2023-03-26T02:34:33.523Z,100030.72
2023-03-26T02:37:36.252Z,100026.16
2023-03-26T02:40:48.243Z,100031.56
2023-03-26T02:43:51.128Z,100020.31
2023-03-26T02:46:57.241Z,100023.81
2023-03-26T02:50:21.213Z,100019.75
2023-03-26T02:53:44.161Z,100006.78
2023-03-26T02:57:01.900Z,100003.19
2023-03-26T03:00:17.960Z,100011.38
2023-03-26T03:03:27.551Z,100011.66
2023-03-26T03:06:38.322Z,100017.44
2023-03-26T03:09:42.249Z,100014.22
2023-03-26T03:13:07.911Z,100011.53
2023-03-26T03:16:11.438Z,100012.09
2023-03-26T03:19:14.591Z,100017.88
2023-03-26T03:22:18.471Z,100019.63
2023-03-26T03:25:23.428Z,100020.94
2023-03-26T03:28:26.741Z,100029.84
2023-03-26T03:31:29.767Z,100025.44
2023-03-26T03:34:38.850Z,100023.19
2023-03-26T03:37:43.261Z,100011.00
2023-03-26T03:40:47.582Z,100019.09
2023-03-26T03:43:51.966Z,100005.66
2023-03-26T03:47:02.369Z,100024.00
2023-03-26T03:50:06.646Z,100036.78
2023-03-26T03:53:15.844Z,100040.88
2023-03-26T03:56:24.172Z,100023.38
2023-03-26T03:59:58.379Z,100027.66
2023-03-26T04:03:06.461Z,100028.47
2023-03-26T04:06:11.134Z,100037.09
2023-03-26T04:09:14.907Z,100030.00
2023-03-26T04:12:18.721Z,100044.63
2023-03-26T04:15:36.030Z,100039.41
2023-03-26T04:18:40.037Z,100042.19
2023-03-26T04:21:49.565Z,100041.75
2023-03-26T04:24:55.215Z,100040.06
2023-03-26T04:28:07.152Z,100036.28
2023-03-26T04:31:31.290Z,100033.88
2023-03-26T04:34:36.472Z,100034.97
2023-03-26T04:37:46.217Z,100030.00
2023-03-26T04:41:00.853Z,100025.03
2023-03-26T04:44:31.893Z,100040.44
2023-03-26T04:47:39.854Z,100053.66
2023-03-26T04:50:45.476Z,100044.72
2023-03-26T04:54:00.028Z,100041.72
2023-03-26T04:57:21.324Z,100047.56
2023-03-26T05:00:32.472Z,100052.88
2023-03-26T05:03:40.765Z,100043.97
2023-03-26T05:06:46.980Z,100029.75
2023-03-26T05:09:58.755Z,100035.75
2023-03-26T05:13:18.465Z,100035.75
2023-03-26T05:16:26.845Z,100030.47
2023-03-26T05:19:33.804Z,100034.78
2023-03-26T05:22:38.746Z,100030.66
2023-03-26T05:25:59.523Z,100039.19
2023-03-26T05:29:03.157Z,100028.00
2023-03-26T05:32:12.909Z,100023.38
2023-03-26T05:35:19.548Z,100017.34
2023-03-26T05:38:23.536Z,100026.00
2023-03-26T05:41:27.121Z,100030.91
2023-03-26T05:44:29.952Z,100027.22
2023-03-26T05:47:37.522Z,100029.91
2023-03-26T05:50:41.549Z,100029.91
2023-03-26T05:53:44.598Z,100035.72
2023-03-26T05:56:47.140Z,100030.91
2023-03-26T06:00:10.800Z,100033.41
2023-03-26T06:03:19.334Z,100031.59
2023-03-26T06:07:02.381Z,100025.56
2023-03-26T06:10:05.745Z,100034.69
2023-03-26T06:13:08.333Z,100028.47
2023-03-26T06:16:26.369Z,100027.09
2023-03-26T06:19:48.011Z,100017.44
2023-03-26T06:22:59.890Z,100020.22
2023-03-26T06:26:38.060Z,100008.38
2023-03-26T06:30:00.038Z,100010.81
2023-03-26T06:33:16.588Z,100010.50
2023-03-26T06:36:23.550Z,100019.97
2023-03-26T06:39:27.041Z,100033.00
2023-03-26T06:43:07.595Z,100026.69
2023-03-26T06:46:43.146Z,100022.94
2023-03-26T06:49:53.141Z,100028.63
2023-03-26T06:53:15.971Z,100026.63
2023-03-26T06:56:40.296Z,100031.72
2023-03-26T07:00:15.851Z,100024.91
2023-03-26T07:03:45.240Z,100023.50
2023-03-26T07:07:06.645Z,100017.94
2023-03-26T07:10:41.121Z,100006.97
2023-03-26T07:14:07.534Z,100002.19
2023-03-26T07:17:30.008Z,99998.91
2023-03-26T07:20:56.578Z,100009.66
2023-03-26T07:24:01.386Z,100007.94
2023-03-26T07:27:59.871Z,100005.72
2023-03-26T07:31:42.404Z,100008.75
2023-03-26T07:35:49.110Z,100015.97
2023-03-26T07:39:39.492Z,100004.13
2023-03-26T07:43:03.388Z,100018.09
2023-03-26T07:46:25.987Z,100004.84
2023-03-26T07:49:58.158Z,100009.75
2023-03-26T07:53:22.640Z,100011.81
2023-03-26T07:56:59.257Z,100008.53
2023-03-26T08:00:48.954Z,100009.88
2023-03-26T08:07:48.487Z,100003.53
2023-03-26T08:11:03.112Z,100003.59
2023-03-26T08:14:29.474Z,100011.66
2023-03-26T08:17:45.007Z,100021.56
2023-03-26T08:20:58.437Z,100017.56
2023-03-26T08:24:25.785Z,100015.31
2023-03-26T08:28:09.026Z,100017.25
2023-03-26T08:31:15.359Z,100011.19
2023-03-26T08:34:17.966Z,100014.66
2023-03-26T08:37:20.659Z,100005.22
2023-03-26T08:40:44.022Z,100012.44
2023-03-26T08:44:14.533Z,100009.91
2023-03-26T08:47:25.772Z,100009.22
2023-03-26T08:50:40.107Z,100005.69
2023-03-26T08:54:02.165Z,100001.56
2023-03-26T08:57:23.504Z,100010.56
2023-03-26T09:01:00.285Z,99996.53
2023-03-26T09:04:14.573Z,100000.97
2023-03-26T09:07:36.734Z,99983.28
2023-03-26T09:11:27.943Z,99987.03
2023-03-26T09:14:33.523Z,99991.50
2023-03-26T09:18:13.079Z,99993.06
2023-03-26T09:21:36.423Z,99972.81
2023-03-26T09:25:03.158Z,99974.75
2023-03-26T09:28:24.962Z,99977.59
2023-03-26T09:31:43.615Z,99968.78
2023-03-26T09:35:15.802Z,99969.47
2023-03-26T09:38:40.513Z,99961.75
2023-03-26T09:41:59.430Z,99956.63
2023-03-26T09:45:27.988Z,99953.78
2023-03-26T09:48:54.188Z,99950.94
2023-03-26T09:52:12.636Z,99941.41
2023-03-26T09:55:48.651Z,99951.28
2023-03-26T09:59:07.120Z,99937.03
2023-03-26T10:02:46.576Z,99924.81
2023-03-26T10:05:52.221Z,99921.09
2023-03-26T10:09:24.689Z,99931.22
2023-03-26T10:12:37.331Z,99906.25
2023-03-26T10:15:45.728Z,99893.34
2023-03-26T10:18:49.052Z,99902.59
2023-03-26T10:22:22.949Z,99900.47
2023-03-26T10:25:37.117Z,99891.88
2023-03-26T10:29:11.184Z,99893.91
2023-03-26T10:32:45.436Z,99889.16
2023-03-26T10:36:26.925Z,99895.19
2023-03-26T10:39:54.588Z,99892.31
2023-03-26T10:43:37.083Z,99895.22
2023-03-26T10:47:18.743Z,99883.41
2023-03-26T10:51:07.863Z,99884.63
2023-03-26T10:54:22.216Z,99873.91
2023-03-26T10:57:25.862Z,99882.66
2023-03-26T11:00:30.123Z,99877.69
2023-03-26T11:03:54.582Z,99864.41
2023-03-26T11:07:06.603Z,99860.34
2023-03-26T11:10:39.336Z,99848.34
2023-03-26T11:14:03.510Z,99842.69
2023-03-26T11:17:40.541Z,99833.94
2023-03-26T11:20:56.192Z,99831.34
2023-03-26T11:24:46.530Z,99816.41
2023-03-26T11:27:57.794Z,99815.50
2023-03-26T11:31:39.313Z,99809.34
2023-03-26T11:34:54.411Z,99812.72
2023-03-26T11:38:02.448Z,99794.75
2023-03-26T11:41:15.909Z,99786.13
2023-03-26T11:44:38.465Z,99775.59
2023-03-26T11:47:50.745Z,99777.19
2023-03-26T11:51:14.938Z,99771.25
2023-03-26T11:54:17.969Z,99760.56
2023-03-26T11:57:28.347Z,99754.28
2023-03-26T12:00:32.502Z,99751.53
2023-03-26T12:03:38.277Z,99730.50
2023-03-26T12:06:53.066Z,99714.06
2023-03-26T12:10:18.386Z,99722.09
2023-03-26T12:13:21.684Z,99706.66
2023-03-26T12:16:24.630Z,99699.38
2023-03-26T12:19:33.710Z,99693.09
2023-03-26T12:22:39.925Z,99685.47
2023-03-26T12:25:43.890Z,99668.84
2023-03-26T12:28:49.446Z,99688.13
2023-03-26T12:32:07.470Z,99682.56
2023-03-26T12:35:18.936Z,99664.19
2023-03-26T12:38:34.698Z,99661.03
2023-03-26T12:44:43.637Z,99647.91
2023-03-26T12:45:06.901Z,99644.09
2023-03-26T12:48:15.706Z,99637.59
2023-03-26T12:51:33.836Z,99626.97
2023-03-26T12:54:36.972Z,99642.22
2023-03-26T12:58:14.030Z,99619.31
2023-03-26T13:01:50.551Z,99616.28
2023-03-26T13:05:32.377Z,99615.03
2023-03-26T13:09:03.522Z,99609.63
2023-03-26T13:12:20.165Z,99598.66
2023-03-26T13:15:34.664Z,99594.81
2023-03-26T13:18:54.378Z,99583.91
2023-03-26T13:22:20.157Z,99575.50
2023-03-26T13:26:07.452Z,99574.47
2023-03-26T13:29:30.423Z,99563.66
2023-03-26T13:33:02.389Z,99556.91
2023-03-26T13:36:30.132Z,99556.31
2023-03-26T13:39:37.766Z,99547.47
2023-03-26T13:43:06.657Z,99549.06
2023-03-26T13:46:20.732Z,99537.78
2023-03-26T13:50:05.617Z,99536.63
2023-03-26T13:53:19.451Z,99528.22
2023-03-26T13:56:32.037Z,99518.81
2023-03-26T13:59:46.928Z,99514.00
2023-03-26T14:02:57.992Z,99505.63
2023-03-26T14:06:07.583Z,99500.97
2023-03-26T14:09:55.542Z,99488.91
2023-03-26T14:13:07.705Z,99501.59
2023-03-26T14:16:25.839Z,99504.94
2023-03-26T14:19:34.373Z,99479.97
2023-03-26T14:23:31.072Z,99481.94
2023-03-26T14:26:40.549Z,99480.03
2023-03-26T14:30:04.991Z,99469.38
2023-03-26T14:33:27.906Z,99472.97
2023-03-26T14:37:06.545Z,99459.91
2023-03-26T14:40:30.173Z,99456.28
2023-03-26T14:43:58.801Z,99445.84
2023-03-26T14:47:55.031Z,99463.47
2023-03-26T14:51:09.606Z,99433.72
2023-03-26T14:54:23.464Z,99445.22
2023-03-26T14:57:33.210Z,99427.94
2023-03-26T15:01:23.485Z,99432.59
2023-03-26T15:05:07.018Z,99424.22
2023-03-26T15:08:33.701Z,99410.81
2023-03-26T15:11:49.582Z,99412.25
2023-03-26T15:15:35.136Z,99412.31
2023-03-26T15:19:08.875Z,99404.47
2023-03-26T15:22:25.942Z,99402.06
2023-03-26T15:25:40.942Z,99400.28
2023-03-26T15:28:58.508Z,99381.97
2023-03-26T15:32:26.873Z,99377.88
2023-03-26T15:35:45.407Z,99377.81
2023-03-26T15:39:15.180Z,99374.47
2023-03-26T15:42:38.074Z,99375.53
2023-03-26T15:45:54.048Z,99380.00
2023-03-26T15:49:37.003Z,99372.88
2023-03-26T15:52:55.228Z,99374.00
2023-03-26T15:56:20.926Z,99357.47
2023-03-26T15:59:41.779Z,99352.38
2023-03-26T16:03:09.225Z,99350.56
2023-03-26T16:06:28.001Z,99349.44
2023-03-26T16:09:45.768Z,99338.50
2023-03-26T16:13:22.854Z,99332.31
2023-03-26T16:16:54.110Z,99317.97
2023-03-26T16:20:23.406Z,99308.22
2023-03-26T16:23:47.708Z,99307.69
2023-03-26T16:26:51.686Z,99302.75
2023-03-26T16:30:00.503Z,99309.84
2023-03-26T16:33:15.449Z,99305.09
2023-03-26T16:36:41.920Z,99297.19
2023-03-26T16:39:44.898Z,99301.63
2023-03-26T16:43:06.871Z,99296.78
2023-03-26T16:46:23.675Z,99308.81
2023-03-26T16:49:35.648Z,99305.06
2023-03-26T16:52:52.000Z,99303.88
2023-03-26T16:56:02.798Z,99302.72
2023-03-26T16:59:29.752Z,99295.38
2023-03-26T17:02:36.824Z,99299.47
2023-03-26T17:05:56.653Z,99298.69
2023-03-26T17:09:00.410Z,99304.81
2023-03-26T17:12:27.117Z,99307.75
2023-03-26T17:16:01.601Z,99306.38
2023-03-26T17:19:17.790Z,99309.47
2023-03-26T17:22:45.206Z,99301.69
2023-03-26T17:26:22.295Z,99308.91
2023-03-26T17:30:03.498Z,99308.75
2023-03-26T17:33:25.594Z,99303.00
2023-03-26T17:36:41.495Z,99308.19
2023-03-26T17:39:46.879Z,99307.63
2023-03-26T17:43:11.472Z,99301.28
2023-03-26T17:46:37.736Z,99303.44
2023-03-26T17:49:41.495Z,99301.31
2023-03-26T17:53:07.363Z,99297.84
2023-03-26T17:56:18.328Z,99298.59
2023-03-26T17:59:25.502Z,99298.38
2023-03-26T18:02:37.411Z,99306.00
2023-03-26T18:05:40.538Z,99306.53
2023-03-26T18:09:10.987Z,99306.72
2023-03-26T18:12:26.810Z,99301.69
2023-03-26T18:15:47.911Z,99302.06
2023-03-26T18:18:57.678Z,99301.50
2023-03-26T18:22:06.075Z,99294.53
2023-03-26T18:25:22.925Z,99300.59
2023-03-26T18:28:35.673Z,99291.00
2023-03-26T18:31:42.661Z,99289.47
2023-03-26T18:34:53.805Z,99279.84
2023-03-26T18:38:01.114Z,99276.41
2023-03-26T18:41:05.915Z,99267.06
2023-03-26T18:44:16.970Z,99274.75
2023-03-26T18:47:21.036Z,99259.00
2023-03-26T18:50:29.309Z,99267.41
2023-03-26T18:53:39.399Z,99259.22
2023-03-26T18:56:47.185Z,99254.19
2023-03-26T18:59:52.808Z,99246.22
2023-03-26T19:03:05.142Z,99237.84
2023-03-26T19:06:10.419Z,99236.84
2023-03-26T19:09:30.392Z,99231.31
2023-03-26T19:12:37.434Z,99218.28
2023-03-26T19:15:42.421Z,99215.56
2023-03-26T19:18:45.623Z,99211.69
2023-03-26T19:21:50.139Z,99213.69
2023-03-26T19:25:00.649Z,99220.50
2023-03-26T19:28:06.303Z,99204.28
2023-03-26T19:31:17.202Z,99203.63
2023-03-26T19:34:33.800Z,99192.41
2023-03-26T19:37:51.035Z,99201.16
2023-03-26T19:40:57.194Z,99195.19
2023-03-26T19:44:02.638Z,99186.19
2023-03-26T19:47:17.471Z,99172.81
2023-03-26T19:50:28.107Z,99164.72
2023-03-26T19:53:37.407Z,99166.13
2023-03-26T19:56:40.705Z,99145.59
2023-03-26T19:59:43.662Z,99144.38
2023-03-26T20:02:54.072Z,99136.38
2023-03-26T20:05:58.102Z,99131.28
2023-03-26T20:09:01.945Z,99117.88
2023-03-26T20:12:04.544Z,99115.78
2023-03-26T20:15:18.972Z,99103.56
2023-03-26T20:18:22.778Z,99102.31
2023-03-26T20:21:26.587Z,99108.22
2023-03-26T20:24:31.127Z,99106.00
2023-03-26T20:27:34.543Z,99098.34
2023-03-26T20:30:38.913Z,99093.06
2023-03-26T20:33:42.302Z,99085.94
2023-03-26T20:36:47.092Z,99076.78
2023-03-26T20:39:50.105Z,99069.31
2023-03-26T20:42:52.757Z,99060.94
2023-03-26T20:45:58.528Z,99062.00
2023-03-26T20:49:02.032Z,99055.75
2023-03-26T20:52:05.816Z,99057.97
2023-03-26T20:55:12.717Z,99055.81
2023-03-26T20:58:31.376Z,99044.41
2023-03-26T21:01:34.903Z,99041.31
2023-03-26T21:04:37.510Z,99045.19
2023-03-26T21:07:42.925Z,99033.59
2023-03-26T21:10:47.609Z,99029.28
2023-03-26T21:14:02.097Z,99026.69
2023-03-26T21:17:07.519Z,99026.19
2023-03-26T21:20:13.618Z,99032.59
2023-03-26T21:23:40.860Z,99064.72
2023-03-26T21:26:52.821Z,99089.69
2023-03-26T21:29:56.260Z,99100.22
2023-03-26T21:32:59.784Z,99085.34
2023-03-26T21:36:04.551Z,99085.72
2023-03-26T21:39:11.123Z,99087.97
2023-03-26T21:42:14.838Z,99094.84
2023-03-26T21:45:19.456Z,99082.03
2023-03-26T21:48:23.630Z,99088.50
2023-03-26T21:51:27.569Z,99085.66
2023-03-26T21:54:32.738Z,99100.19
2023-03-26T21:57:45.426Z,99091.91
2023-03-26T22:00:51.850Z,99095.75
2023-03-26T22:04:06.673Z,99088.00
2023-03-26T22:07:14.689Z,99086.44
2023-03-26T22:10:19.220Z,99086.22
2023-03-26T22:13:21.845Z,99078.03
2023-03-26T22:16:25.482Z,99074.19
2023-03-26T22:19:30.109Z,99069.19
2023-03-26T22:22:32.947Z,99070.06
2023-03-26T22:25:36.215Z,99054.66
2023-03-26T22:28:39.821Z,99046.84
2023-03-26T22:31:42.854Z,99051.41
2023-03-26T22:34:45.720Z,99048.09
2023-03-26T22:37:48.551Z,99056.72
2023-03-26T22:40:57.280Z,99050.16
2023-03-26T22:44:09.250Z,99047.53
2023-03-26T22:47:22.582Z,99045.00
2023-03-26T22:50:27.745Z,99042.03
2023-03-26T22:53:31.884Z,99032.28
2023-03-26T22:56:34.499Z,99026.16
2023-03-26T22:59:37.694Z,99023.22
2023-03-26T23:02:41.198Z,99020.47
2023-03-26T23:05:54.953Z,99014.00
2023-03-26T23:08:58.159Z,99007.66
2023-03-26T23:12:01.303Z,99007.06
2023-03-26T23:15:06.543Z,99003.16
2023-03-26T23:18:09.194Z,99006.88
2023-03-26T23:21:22.110Z,98997.19
2023-03-26T23:24:26.447Z,98989.63
2023-03-26T23:27:29.715Z,98989.25
2023-03-26T23:30:35.052Z,98982.91
2023-03-26T23:33:45.593Z,98978.59
2023-03-26T23:36:49.991Z,98977.94
2023-03-26T23:39:52.677Z,98979.94
2023-03-26T23:42:56.559Z,98963.53
2023-03-26T23:45:59.822Z,98970.81
2023-03-26T23:49:03.806Z,98952.69
2023-03-26T23:52:06.556Z,98951.72
2023-03-26T23:55:09.255Z,98947.09
2023-03-26T23:58:11.824Z,98939.13
